MAPA DE AEROPUERTO

INFORMACIÓN METAR y TAF

METAR FOR LEJR
ADDS - METARS form results

(1118 UTC 27 November 2021)
Data provider http://aviationweather.gov/metar/data/
 
METAR text: LEJR 271100Z 25004KT 210V320 CAVOK 12/08 Q1014
Conditions at: LEJR (JEREZ (CIV/MIL) , ES) observed 1100 UTC 27 November 2021
Temperature: 12.0°C (54°F)
Dewpoint: 8.0°C (46°F) [RH = 76%]
Pressure (altimeter): 29.94 inches Hg (1014.0 mb)
Winds: from the WSW (250 degrees) at 5 MPH (4 knots; 2.1 m/s)
Visibility: 6 or more miles (10+ km)
Ceiling: ceiling and visibility are OK
Clouds: unknown
Weather: no significant weather observed at this time

METAR text: LEJR 271030Z 25003KT 200V320 CAVOK 10/07 Q1015
Conditions at: LEJR (JEREZ (CIV/MIL) , ES) observed 1030 UTC 27 November 2021
Temperature: 10.0°C (50°F)
Dewpoint: 7.0°C (45°F) [RH = 82%]
Pressure (altimeter): 29.97 inches Hg (1015.0 mb)
Winds: from the WSW (250 degrees) at 3 MPH (3 knots; 1.5 m/s)
Visibility: 6 or more miles (10+ km)
Ceiling: ceiling and visibility are OK
Clouds: unknown
Weather: no significant weather observed at this time

Forecast for: LEJR (JEREZ (CIV/MIL) , ES)
Text: TAF LEJR 270800Z 2709/2809 31009KT 9999 SCT040 TX16/2715Z TN02/2807Z
Forecast period: 0900 UTC 27 November 2021 to 0900 UTC 28 November 2021
Forecast type: FROM: standard forecast or significant change
Winds: from the NW (310 degrees) at 10 MPH (9 knots; 4.6 m/s)
Visibility: 6 or more miles (10+ km)
Ceiling: at least 12,000 feet AGL
Clouds: scattered clouds at 4000 feet AGL
Weather: no significant weather forecast for this period
Text: PROB40
Forecast period: 0900 to 1000 UTC 27 November 2021
Forecast type: TEMPORARY: The following changes expected for less than half the time period
Visibility: 2.49 miles (4.01 km)
Ceiling: 900 feet AGL
Clouds: broken clouds at 900 feet AGL
Weather: BR  (mist)